Time;durP1;ratioP1;P1;durP2;ratioP2;P2;SDS_P1;SDS_P2;PMS_P1;PMS_P2;Temp;Humidity;BMP_temperature;BMP_pressure;BME280_temperature;BME280_humidity;BME280_pressure;Samples;Min_cycle;Max_cycle;Signal;HPM_P1;HPM_P2
2022/08/05 00:00:39;;;;;;;5.50;5.07;;;26.70;74.80;;;;;;10516691;28;20286;-80
2022/08/05 00:05:43;;;;;;;5.33;5.03;;;26.70;74.40;;;;;;10529905;28;20192;-80
2022/08/05 00:10:45;;;;;;;4.90;4.60;;;26.60;73.90;;;;;;10518153;28;20220;-82
2022/08/05 00:15:47;;;;;;;8.63;5.50;;;26.50;75.20;;;;;;10533145;28;20192;-82
2022/08/05 00:20:51;;;;;;;6.20;5.80;;;26.50;76.30;;;;;;10532390;28;20216;-83
2022/08/05 00:25:53;;;;;;;5.97;5.53;;;26.50;75.20;;;;;;10532142;28;20291;-80
2022/08/05 00:30:55;;;;;;;5.97;5.47;;;26.50;75.10;;;;;;10504205;28;20599;-79
2022/08/05 00:35:59;;;;;;;5.50;5.20;;;26.50;75.50;;;;;;10539254;28;20219;-83
2022/08/05 00:41:01;;;;;;;6.27;5.87;;;26.40;75.30;;;;;;10547618;28;20251;-83
2022/08/05 00:46:03;;;;;;;5.63;5.33;;;26.40;75.80;;;;;;10548213;28;20208;-83
2022/08/05 00:51:06;;;;;;;6.30;5.80;;;26.40;76.10;;;;;;10531160;28;20220;-83
2022/08/05 00:56:09;;;;;;;5.67;5.30;;;26.30;75.00;;;;;;10517471;28;20224;-81
2022/08/05 01:01:11;;;;;;;6.10;5.70;;;26.30;74.60;;;;;;10535939;28;20216;-82
2022/08/05 01:06:15;;;;;;;5.83;5.40;;;26.30;74.90;;;;;;10530104;28;20606;-80
2022/08/05 01:11:21;;;;;;;5.43;5.10;;;26.30;71.80;;;;;;10521852;28;20216;-80
2022/08/05 01:16:30;;;;;;;6.50;4.60;;;26.30;70.30;;;;;;10541222;28;20283;-80
2022/08/05 01:22:01;;;;;;;4.57;4.20;;;26.30;67.60;;;;;;10503408;28;20414;-80
2022/08/05 01:27:13;;;;;;;5.03;4.57;;;26.40;67.80;;;;;;10530054;28;20219;-81
2022/08/05 01:32:20;;;;;;;4.90;4.60;;;26.40;68.10;;;;;;10521415;28;20215;-81
2022/08/05 01:37:28;;;;;;;4.77;4.33;;;26.50;69.30;;;;;;10531213;28;20247;-81
2022/08/05 01:42:32;;;;;;;4.60;4.30;;;26.50;70.50;;;;;;10541476;28;20207;-80
2022/08/05 01:47:37;;;;;;;4.77;4.37;;;26.50;71.40;;;;;;10527075;28;20676;-80
2022/08/05 01:52:42;;;;;;;4.80;4.37;;;26.50;69.40;;;;;;10546104;28;20254;-80
2022/08/05 01:57:47;;;;;;;7.23;4.53;;;26.40;71.00;;;;;;10532546;28;20234;-80
2022/08/05 02:02:55;;;;;;;4.73;4.43;;;26.40;71.30;;;;;;10546789;28;20688;-81
2022/08/05 02:07:58;;;;;;;4.90;4.43;;;26.40;72.00;;;;;;10522316;28;20738;-80
2022/08/05 02:13:05;;;;;;;4.90;4.60;;;26.40;73.40;;;;;;10524137;28;20231;-80
2022/08/05 02:18:15;;;;;;;4.57;4.30;;;26.30;72.70;;;;;;10541805;28;20231;-80
2022/08/05 02:23:22;;;;;;;6.40;4.47;;;26.30;73.40;;;;;;10540440;28;20201;-80
2022/08/05 02:28:26;;;;;;;5.27;4.87;;;26.30;74.00;;;;;;10531472;28;20734;-80
2022/08/05 02:33:32;;;;;;;4.90;4.50;;;26.20;74.80;;;;;;10542176;28;20567;-80
2022/08/05 02:38:35;;;;;;;5.10;4.60;;;26.30;75.70;;;;;;10522738;28;20250;-80
2022/08/05 02:43:39;;;;;;;5.40;4.90;;;26.30;79.20;;;;;;10525196;28;20349;-80
2022/08/05 02:48:43;;;;;;;6.07;5.07;;;26.20;75.20;;;;;;10529581;28;20654;-81
2022/08/05 02:53:47;;;;;;;5.13;4.73;;;26.20;76.60;;;;;;10532245;28;20196;-80
2022/08/05 02:58:50;;;;;;;4.90;4.57;;;26.20;75.40;;;;;;10519403;28;20216;-80
2022/08/05 03:03:58;;;;;;;5.50;5.10;;;26.20;78.70;;;;;;10544178;28;20202;-80
2022/08/05 03:09:00;;;;;;;5.97;5.33;;;26.10;76.50;;;;;;10512395;28;20227;-81
2022/08/05 03:14:02;;;;;;;5.70;5.30;;;26.10;78.90;;;;;;10493939;28;20238;-79
2022/08/05 03:19:06;;;;;;;5.57;5.07;;;26.10;78.60;;;;;;10530189;28;20253;-80
2022/08/05 03:24:09;;;;;;;5.93;5.57;;;26.10;78.70;;;;;;10511844;28;20677;-84
2022/08/05 03:29:11;;;;;;;6.90;6.20;;;26.10;80.10;;;;;;10508394;28;20605;-79
2022/08/05 03:34:15;;;;;;;5.90;5.50;;;26.10;77.70;;;;;;10516556;28;20620;-80
2022/08/05 03:39:17;;;;;;;9.50;5.53;;;26.10;80.30;;;;;;10512833;28;20216;-81
2022/08/05 03:44:19;;;;;;;5.60;5.20;;;26.00;79.50;;;;;;10541199;28;20287;-81
2022/08/05 03:49:22;;;;;;;5.13;4.63;;;26.00;77.10;;;;;;10511564;28;20231;-81
2022/08/05 03:54:33;;;;;;;6.80;5.27;;;26.00;76.40;;;;;;10528026;28;20210;-80
2022/08/05 03:59:41;;;;;;;4.90;4.70;;;25.90;76.90;;;;;;10548668;28;20277;-80
2022/08/05 04:04:45;;;;;;;6.20;5.60;;;25.80;76.90;;;;;;10532340;28;20184;-80
2022/08/05 04:09:47;;;;;;;6.30;6.00;;;25.60;77.40;;;;;;10545470;28;20227;-80
2022/08/05 04:14:50;;;;;;;6.73;6.20;;;25.50;78.50;;;;;;10542845;28;20635;-80
2022/08/05 04:19:53;;;;;;;7.10;5.00;;;25.40;78.80;;;;;;10543918;28;20286;-80
2022/08/05 04:24:58;;;;;;;5.90;5.60;;;25.40;78.50;;;;;;10522290;28;20231;-80
2022/08/05 04:30:00;;;;;;;6.20;5.80;;;25.30;78.80;;;;;;10533821;28;20223;-80
2022/08/05 04:35:04;;;;;;;6.43;5.93;;;25.30;78.80;;;;;;10527146;28;20208;-79
2022/08/05 04:40:07;;;;;;;6.97;6.20;;;25.20;80.60;;;;;;10544948;28;20220;-80
2022/08/05 04:45:10;;;;;;;5.30;4.80;;;25.20;79.60;;;;;;10546436;28;20241;-79
2022/08/05 04:50:14;;;;;;;10.47;6.10;;;25.20;80.50;;;;;;10541651;28;20259;-80
2022/08/05 04:55:16;;;;;;;8.03;6.73;;;25.20;82.30;;;;;;10523912;28;20199;-83
2022/08/05 05:00:18;;;;;;;6.87;6.10;;;25.30;82.00;;;;;;10534994;28;20271;-80
2022/08/05 05:05:22;;;;;;;6.00;5.40;;;25.30;80.10;;;;;;10545527;28;20196;-81
2022/08/05 05:10:24;;;;;;;6.03;5.50;;;25.30;80.70;;;;;;10536952;28;20307;-80
2022/08/05 05:15:26;;;;;;;8.40;6.10;;;25.30;80.60;;;;;;10532059;28;20261;-80
2022/08/05 05:20:29;;;;;;;6.80;5.40;;;25.40;80.40;;;;;;10526206;28;20756;-80
2022/08/05 05:25:32;;;;;;;8.10;6.43;;;25.50;80.20;;;;;;10533918;28;20628;-80
2022/08/05 05:30:34;;;;;;;7.03;6.27;;;25.50;81.90;;;;;;10544374;28;20600;-80
2022/08/05 05:35:38;;;;;;;6.60;6.00;;;25.60;80.40;;;;;;10526703;28;20982;-81
2022/08/05 05:40:40;;;;;;;8.20;7.50;;;25.70;82.20;;;;;;10550603;28;20295;-82
2022/08/05 05:45:42;;;;;;;5.90;5.37;;;25.70;79.70;;;;;;10543651;28;20287;-80
2022/08/05 05:50:45;;;;;;;7.37;6.73;;;25.80;81.10;;;;;;10525084;28;20274;-80
2022/08/05 05:55:47;;;;;;;12.77;8.00;;;25.90;79.10;;;;;;10503417;28;20210;-80
2022/08/05 06:00:50;;;;;;;9.70;7.30;;;25.90;79.20;;;;;;10538567;28;20218;-80
2022/08/05 06:05:53;;;;;;;8.40;7.63;;;26.00;78.90;;;;;;10521441;28;20758;-80
2022/08/05 06:10:55;;;;;;;7.40;6.77;;;26.00;79.30;;;;;;10536449;28;20281;-80
2022/08/05 06:15:57;;;;;;;7.50;6.93;;;26.10;78.60;;;;;;10533408;28;20200;-80
2022/08/05 06:21:02;;;;;;;6.20;5.70;;;26.10;77.40;;;;;;10546440;28;20226;-80
2022/08/05 06:26:04;;;;;;;8.00;6.90;;;26.20;78.40;;;;;;10542522;28;20192;-80
2022/08/05 06:31:06;;;;;;;5.90;5.50;;;26.20;78.90;;;;;;10542006;28;20314;-80
2022/08/05 06:36:10;;;;;;;8.00;7.20;;;26.20;77.20;;;;;;10546578;28;20694;-80
2022/08/05 06:41:12;;;;;;;6.57;6.17;;;26.30;77.10;;;;;;10543931;28;20251;-81
2022/08/05 06:46:14;;;;;;;7.23;6.83;;;26.40;76.60;;;;;;10542561;28;20230;-79
2022/08/05 06:51:18;;;;;;;6.70;6.10;;;26.50;77.10;;;;;;10540732;28;20235;-79
2022/08/05 06:56:20;;;;;;;11.23;7.33;;;26.50;78.00;;;;;;10539952;28;20200;-79
2022/08/05 07:01:22;;;;;;;7.23;6.83;;;26.60;76.70;;;;;;10518441;28;20246;-79
2022/08/05 07:06:25;;;;;;;7.60;7.10;;;26.90;76.80;;;;;;10519726;28;20200;-79
2022/08/05 07:11:29;;;;;;;7.27;6.70;;;27.20;76.20;;;;;;10535279;28;20664;-79
2022/08/05 07:16:49;;;;;;;8.60;7.90;;;27.40;74.10;;;;;;10540826;28;20261;-80
2022/08/05 07:21:53;;;;;;;7.27;6.67;;;27.50;74.20;;;;;;10541562;28;20219;-80
2022/08/05 07:26:55;;;;;;;8.43;7.70;;;27.60;73.80;;;;;;10486246;28;20210;-80
2022/08/05 07:31:57;;;;;;;7.43;6.93;;;27.80;73.80;;;;;;10538072;28;20216;-80
2022/08/05 07:37:01;;;;;;;7.70;7.10;;;28.00;72.90;;;;;;10520619;28;20660;-80
2022/08/05 07:42:03;;;;;;;8.33;6.80;;;28.40;72.10;;;;;;10544366;28;20208;-80
2022/08/05 07:47:05;;;;;;;7.63;7.23;;;28.90;70.80;;;;;;10558276;28;20196;-80
2022/08/05 07:52:09;;;;;;;6.10;5.70;;;29.20;68.20;;;;;;10536527;28;20334;-79
2022/08/05 07:57:11;;;;;;;7.30;6.80;;;29.50;66.50;;;;;;10536459;28;20227;-80
2022/08/05 08:02:13;;;;;;;5.87;5.47;;;29.70;67.40;;;;;;10521444;28;20200;-80
2022/08/05 08:07:17;;;;;;;6.47;6.07;;;30.00;65.80;;;;;;10538469;28;20215;-80
2022/08/05 08:12:20;;;;;;;6.43;6.13;;;30.30;64.50;;;;;;10542171;28;20235;-80
2022/08/05 08:17:22;;;;;;;6.90;6.50;;;30.60;62.80;;;;;;10536651;28;20269;-80
2022/08/05 08:22:27;;;;;;;6.30;5.90;;;30.90;60.30;;;;;;10503608;28;20204;-81
2022/08/05 08:27:29;;;;;;;6.90;6.60;;;31.20;59.70;;;;;;10527567;28;20215;-81
2022/08/05 08:32:34;;;;;;;18.87;7.43;;;31.50;58.40;;;;;;10548559;28;20222;-82
2022/08/05 08:37:38;;;;;;;6.50;6.10;;;31.80;57.80;;;;;;10534092;28;20246;-79
2022/08/05 08:42:42;;;;;;;6.50;6.10;;;32.00;57.20;;;;;;10528706;28;20204;-80
2022/08/05 08:47:46;;;;;;;6.23;5.93;;;32.30;57.60;;;;;;10508981;28;20220;-79
2022/08/05 08:52:56;;;;;;;8.23;6.83;;;32.60;56.10;;;;;;10521768;28;20335;-80
2022/08/05 08:57:59;;;;;;;5.63;5.13;;;32.70;55.20;;;;;;10523774;28;20251;-81
2022/08/05 09:03:04;;;;;;;6.23;5.93;;;32.90;55.80;;;;;;10526322;28;20199;-79
2022/08/05 09:08:08;;;;;;;4.90;4.50;;;33.10;55.80;;;;;;10490288;28;20313;-82
2022/08/05 09:13:10;;;;;;;6.77;6.37;;;33.20;54.50;;;;;;10516581;28;20220;-81
2022/08/05 09:18:13;;;;;;;5.20;5.00;;;33.00;54.30;;;;;;10536347;28;20220;-82
2022/08/05 09:23:19;;;;;;;5.87;5.47;;;32.90;54.70;;;;;;10523487;28;20296;-82
2022/08/05 09:28:23;;;;;;;4.40;4.20;;;32.80;53.10;;;;;;10525217;28;20227;-80
2022/08/05 09:33:25;;;;;;;5.90;5.70;;;32.70;53.90;;;;;;10514735;28;20212;-79
2022/08/05 09:38:29;;;;;;;5.90;5.50;;;32.90;54.60;;;;;;10516118;28;20251;-80
2022/08/05 09:43:33;;;;;;;6.07;5.67;;;33.20;53.50;;;;;;10517130;28;20199;-81
2022/08/05 09:48:37;;;;;;;6.37;6.03;;;33.50;51.40;;;;;;10524252;28;20246;-79
2022/08/05 09:53:49;;;;;;;5.47;5.27;;;33.80;52.60;;;;;;10528110;28;20227;-79
2022/08/05 09:58:59;;;;;;;3.80;3.60;;;34.00;52.90;;;;;;10502762;28;20219;-80
2022/08/05 10:04:04;;;;;;;5.10;4.80;;;34.10;51.80;;;;;;10516654;28;20219;-80
2022/08/05 10:09:20;;;;;;;2.13;2.03;;;34.20;50.80;;;;;;10529223;28;20228;-82
2022/08/05 10:14:23;;;;;;;4.83;4.50;;;34.40;51.80;;;;;;10530908;28;20240;-80
2022/08/05 10:19:26;;;;;;;4.40;4.17;;;34.60;51.80;;;;;;10524177;28;20243;-79
2022/08/05 10:24:32;;;;;;;6.10;5.80;;;34.70;50.90;;;;;;10514213;28;20282;-81
2022/08/05 10:29:37;;;;;;;5.40;5.10;;;34.60;50.20;;;;;;10495814;28;20713;-82
2022/08/05 10:34:39;;;;;;;6.03;5.83;;;34.10;51.30;;;;;;10510715;28;20614;-81
2022/08/05 10:39:46;;;;;;;5.97;5.67;;;33.60;51.90;;;;;;10500201;28;20215;-79
2022/08/05 10:44:49;;;;;;;6.17;5.87;;;33.10;52.80;;;;;;10502416;28;20193;-81
2022/08/05 10:50:05;;;;;;;5.33;5.13;;;32.70;52.90;;;;;;10499528;28;20314;-81
2022/08/05 10:55:10;;;;;;;6.30;5.80;;;32.30;53.00;;;;;;10488609;28;20200;-80
2022/08/05 11:00:15;;;;;;;4.43;4.13;;;32.00;53.00;;;;;;10484940;28;20220;-80
2022/08/05 11:05:17;;;;;;;5.90;5.60;;;31.70;53.70;;;;;;10497880;28;20228;-80
2022/08/05 11:10:24;;;;;;;5.80;5.60;;;31.60;53.40;;;;;;10502814;28;20227;-80
2022/08/05 11:15:29;;;;;;;5.23;4.83;;;31.40;55.00;;;;;;10519611;28;20249;-81
2022/08/05 11:20:37;;;;;;;4.73;4.53;;;31.20;55.40;;;;;;10513246;28;20311;-80
2022/08/05 11:25:42;;;;;;;5.70;5.40;;;31.10;54.90;;;;;;10519605;28;20199;-80
2022/08/05 11:31:20;;;;;;;14.57;6.93;;;31.00;54.20;;;;;;10518029;28;20213;-80
2022/08/05 11:36:46;;;;;;;5.33;5.13;;;30.90;55.70;;;;;;10521307;28;20280;-82
2022/08/05 11:41:53;;;;;;;6.03;5.30;;;30.90;54.50;;;;;;10529192;28;20203;-82
2022/08/05 11:46:55;;;;;;;4.50;4.30;;;30.90;54.80;;;;;;10532506;28;20232;-82
2022/08/05 11:51:57;;;;;;;4.40;4.20;;;31.10;55.20;;;;;;10529568;28;20660;-82
2022/08/05 11:57:02;;;;;;;4.87;4.57;;;31.20;55.00;;;;;;10482038;28;20258;-81
2022/08/05 12:02:06;;;;;;;5.60;5.20;;;31.40;53.90;;;;;;10533294;28;20587;-82
2022/08/05 12:07:10;;;;;;;4.77;4.57;;;31.50;53.80;;;;;;10517890;28;20191;-83
2022/08/05 12:12:20;;;;;;;5.17;4.83;;;31.60;56.40;;;;;;10532769;28;20224;-81
2022/08/05 12:17:23;;;;;;;5.07;4.87;;;31.70;54.10;;;;;;10544509;28;20219;-80
2022/08/05 12:22:28;;;;;;;4.00;3.77;;;31.70;55.00;;;;;;10525485;28;20184;-81
2022/08/05 12:27:32;;;;;;;5.30;5.10;;;31.70;55.20;;;;;;10515089;28;20600;-81
2022/08/05 12:32:35;;;;;;;5.23;4.93;;;31.70;55.20;;;;;;10505976;28;20242;-81
2022/08/05 12:37:38;;;;;;;5.33;5.10;;;31.60;55.40;;;;;;10537839;28;20694;-81
2022/08/05 12:42:42;;;;;;;5.40;5.10;;;31.60;55.70;;;;;;10521331;28;20321;-81
2022/08/05 12:47:44;;;;;;;5.37;4.97;;;31.60;56.00;;;;;;10513157;28;20255;-80
2022/08/05 12:52:55;;;;;;;5.47;5.13;;;31.60;56.40;;;;;;10513250;28;20327;-80
2022/08/05 12:57:59;;;;;;;6.50;6.10;;;31.50;57.00;;;;;;10499708;28;20837;-80
2022/08/05 13:03:02;;;;;;;7.10;6.60;;;31.40;57.60;;;;;;10489644;28;20710;-80
2022/08/05 13:08:05;;;;;;;5.60;5.40;;;31.40;56.10;;;;;;10530109;28;20793;-81
2022/08/05 13:13:09;;;;;;;5.77;5.37;;;31.40;56.60;;;;;;10543949;28;20278;-80
2022/08/05 13:18:12;;;;;;;4.47;4.27;;;31.40;56.60;;;;;;10525928;28;20235;-80
2022/08/05 13:23:14;;;;;;;5.03;4.63;;;31.40;58.20;;;;;;10548549;28;20555;-80
2022/08/05 13:28:19;;;;;;;4.27;3.97;;;31.40;56.80;;;;;;10541553;28;20338;-80
2022/08/05 13:33:21;;;;;;;4.70;4.40;;;31.40;57.50;;;;;;10522923;28;20225;-80
2022/08/05 13:38:23;;;;;;;4.70;4.37;;;31.40;56.40;;;;;;10538098;28;20243;-80
2022/08/05 13:43:31;;;;;;;5.30;5.10;;;31.30;57.30;;;;;;10507694;28;20257;-79
2022/08/05 13:48:34;;;;;;;5.93;5.53;;;31.20;57.20;;;;;;10506214;28;20230;-80
2022/08/05 13:53:36;;;;;;;5.63;5.33;;;31.20;57.30;;;;;;10510899;28;20674;-80
2022/08/05 13:58:40;;;;;;;5.67;5.37;;;31.10;57.90;;;;;;10532814;28;20221;-80
2022/08/05 14:03:42;;;;;;;5.60;5.20;;;31.10;57.20;;;;;;10518558;28;20260;-79
2022/08/05 14:08:44;;;;;;;5.23;4.93;;;31.10;57.30;;;;;;10503630;28;20762;-80
2022/08/05 14:13:47;;;;;;;5.70;5.23;;;31.10;57.70;;;;;;10538481;28;20224;-79
2022/08/05 14:18:49;;;;;;;4.40;4.10;;;31.10;57.00;;;;;;10525911;28;20219;-79
2022/08/05 14:23:51;;;;;;;4.50;3.73;;;31.30;56.60;;;;;;10517258;28;20249;-79
2022/08/05 14:28:55;;;;;;;6.23;5.93;;;31.30;55.90;;;;;;10495482;28;20236;-79
2022/08/05 14:33:57;;;;;;;6.30;6.00;;;31.30;55.40;;;;;;10510392;28;20219;-80
2022/08/05 14:38:59;;;;;;;5.17;4.67;;;31.20;55.50;;;;;;10535637;28;20609;-81
2022/08/05 14:44:03;;;;;;;5.60;5.27;;;31.10;57.10;;;;;;10518660;28;20228;-81
2022/08/05 14:49:06;;;;;;;6.40;5.90;;;30.90;56.20;;;;;;10538426;28;20234;-80
2022/08/05 14:54:09;;;;;;;4.80;4.40;;;30.80;57.70;;;;;;10521838;28;20241;-81
2022/08/05 14:59:12;;;;;;;4.60;4.20;;;30.70;58.40;;;;;;10536986;28;20224;-81
2022/08/05 15:04:14;;;;;;;6.30;5.90;;;30.60;57.30;;;;;;10543615;28;20230;-81
2022/08/05 15:09:17;;;;;;;4.10;3.90;;;30.50;58.10;;;;;;10537503;28;20590;-81
2022/08/05 15:14:21;;;;;;;5.97;5.50;;;30.40;58.20;;;;;;10539684;28;20251;-81
2022/08/05 15:19:23;;;;;;;13.87;10.40;;;30.20;61.40;;;;;;10543514;28;20216;-81
2022/08/05 15:24:25;;;;;;;18.13;17.10;;;30.20;80.10;;;;;;10505832;28;20198;-80
2022/08/05 15:29:28;;;;;;;12.30;11.50;;;29.40;87.20;;;;;;10522196;28;20227;-80
2022/08/05 15:34:31;;;;;;;17.73;16.53;;;28.30;92.10;;;;;;10519468;28;20220;-79
2022/08/05 15:39:33;;;;;;;14.43;13.57;;;27.40;94.30;;;;;;10537737;28;20239;-80
2022/08/05 15:44:40;;;;;;;17.43;16.43;;;26.80;96.90;;;;;;10524426;28;20202;-80
2022/08/05 15:49:42;;;;;;;11.30;10.50;;;26.40;99.90;;;;;;10544432;28;20216;-79
2022/08/05 15:54:44;;;;;;;16.87;15.60;;;26.30;99.90;;;;;;10533914;28;20219;-79
2022/08/05 15:59:47;;;;;;;8.43;7.80;;;26.20;99.90;;;;;;10522345;28;20220;-79
2022/08/05 16:04:51;;;;;;;14.10;13.30;;;26.30;99.90;;;;;;10519677;28;20286;-80
2022/08/05 16:09:53;;;;;;;11.73;11.13;;;26.40;96.60;;;;;;10547626;28;20314;-80
2022/08/05 16:14:57;;;;;;;13.73;12.93;;;26.50;96.90;;;;;;10545854;28;20220;-79
2022/08/05 16:19:59;;;;;;;9.53;8.80;;;26.50;94.80;;;;;;10542090;28;20288;-80
2022/08/05 16:25:01;;;;;;;13.30;12.40;;;26.60;94.20;;;;;;10540726;28;20200;-80
2022/08/05 16:30:07;;;;;;;10.50;10.00;;;26.70;92.60;;;;;;10542452;28;20238;-79
2022/08/05 16:35:09;;;;;;;12.07;10.97;;;26.80;92.60;;;;;;10526906;28;20226;-79
2022/08/05 16:40:11;;;;;;;9.63;9.03;;;26.80;92.30;;;;;;10526745;28;20228;-80
2022/08/05 16:45:15;;;;;;;8.87;8.37;;;26.80;88.30;;;;;;10524418;28;20641;-79
2022/08/05 16:50:17;;;;;;;7.00;6.50;;;26.80;89.50;;;;;;10535756;28;20224;-79
2022/08/05 16:55:19;;;;;;;7.40;7.00;;;26.90;89.70;;;;;;10518255;28;20646;-80
2022/08/05 17:00:23;;;;;;;6.40;5.50;;;26.90;90.40;;;;;;10524195;28;20227;-80
2022/08/05 17:05:25;;;;;;;5.53;5.10;;;26.90;87.70;;;;;;10525299;28;20211;-80
2022/08/05 17:10:27;;;;;;;5.80;5.27;;;27.00;86.40;;;;;;10520878;28;20232;-79
2022/08/05 17:15:31;;;;;;;5.27;4.87;;;27.00;86.10;;;;;;10531822;28;20696;-80
2022/08/05 17:20:33;;;;;;;6.30;5.60;;;27.10;84.60;;;;;;10535217;28;20645;-81
2022/08/05 17:25:35;;;;;;;6.90;4.63;;;27.10;84.20;;;;;;10531528;28;20291;-81
2022/08/05 17:30:38;;;;;;;5.70;5.40;;;27.10;83.70;;;;;;10533658;28;20235;-80
2022/08/05 17:35:40;;;;;;;5.47;5.07;;;27.10;83.70;;;;;;10511750;28;20221;-79
2022/08/05 17:40:43;;;;;;;6.13;5.73;;;27.10;82.40;;;;;;10510324;28;20699;-80
2022/08/05 17:45:46;;;;;;;5.67;5.17;;;27.10;84.60;;;;;;10531305;28;20196;-80
2022/08/05 17:50:48;;;;;;;5.20;4.90;;;27.10;82.80;;;;;;10522340;28;20216;-78
2022/08/05 17:55:50;;;;;;;5.30;4.90;;;27.00;83.70;;;;;;10524519;28;20224;-79
2022/08/05 18:00:54;;;;;;;6.10;5.70;;;27.00;81.80;;;;;;10524840;28;20243;-79
2022/08/05 18:05:56;;;;;;;6.70;6.07;;;27.00;82.80;;;;;;10513634;28;20196;-80
2022/08/05 18:10:58;;;;;;;5.90;5.60;;;27.00;81.60;;;;;;10530872;28;20220;-78
2022/08/05 18:16:01;;;;;;;6.40;6.00;;;27.00;82.60;;;;;;10531219;28;20283;-79
2022/08/05 18:21:04;;;;;;;7.83;7.10;;;26.90;84.50;;;;;;10521654;28;20219;-79
2022/08/05 18:26:06;;;;;;;8.40;7.70;;;26.90;85.20;;;;;;10534818;28;20595;-81
2022/08/05 18:31:10;;;;;;;7.33;6.73;;;26.80;85.30;;;;;;10532229;28;20250;-81
2022/08/05 18:36:12;;;;;;;7.97;7.37;;;26.70;86.20;;;;;;10518958;28;20196;-79
2022/08/05 18:41:16;;;;;;;11.63;7.97;;;26.60;87.50;;;;;;10540862;28;20224;-80
2022/08/05 18:46:20;;;;;;;9.40;8.60;;;26.60;86.30;;;;;;10533894;28;20204;-79
2022/08/05 18:56:42;;;;;;;13.43;12.00;;;26.40;87.10;;;;;;10535630;28;20207;-81
2022/08/05 19:01:46;;;;;;;13.30;12.10;;;26.40;88.00;;;;;;10542786;28;20235;-81
2022/08/05 19:06:48;;;;;;;11.40;10.53;;;26.40;86.90;;;;;;10513033;28;20192;-80
2022/08/05 19:11:50;;;;;;;12.00;11.10;;;26.30;86.60;;;;;;10518591;22;20711;-80
2022/08/05 19:16:53;;;;;;;11.90;11.10;;;26.30;86.90;;;;;;10519587;28;20234;-81
2022/08/05 19:21:55;;;;;;;12.70;11.70;;;26.20;87.00;;;;;;10511627;28;20494;-81
2022/08/05 19:26:57;;;;;;;14.13;12.83;;;26.10;86.50;;;;;;10511838;28;20643;-82
2022/08/05 19:32:01;;;;;;;13.03;12.13;;;26.10;87.20;;;;;;10543240;28;20208;-82
2022/08/05 19:37:03;;;;;;;14.57;13.40;;;26.00;85.40;;;;;;10543634;28;20200;-82
2022/08/05 19:42:06;;;;;;;12.13;11.27;;;26.00;86.80;;;;;;10526553;28;20354;-82
2022/08/05 19:47:09;;;;;;;12.90;11.90;;;25.90;85.20;;;;;;10511579;28;20204;-82
2022/08/05 19:52:11;;;;;;;12.23;11.30;;;25.90;84.60;;;;;;10547129;28;20262;-82
2022/08/05 19:57:14;;;;;;;11.40;10.60;;;25.80;82.80;;;;;;10525103;28;20234;-82
2022/08/05 20:02:17;;;;;;;10.17;9.47;;;25.70;81.80;;;;;;10534091;28;20246;-82
2022/08/05 20:07:19;;;;;;;10.90;10.10;;;25.60;82.30;;;;;;10537748;28;20199;-81
2022/08/05 20:12:21;;;;;;;10.70;9.97;;;25.50;83.60;;;;;;10552947;28;20269;-83
2022/08/05 20:17:25;;;;;;;10.73;9.77;;;25.40;84.60;;;;;;10539870;28;20218;-79
2022/08/05 20:22:27;;;;;;;11.20;10.20;;;25.30;86.30;;;;;;10550827;28;20625;-80
2022/08/05 20:27:29;;;;;;;11.67;10.63;;;25.20;89.90;;;;;;10553776;28;20278;-83
2022/08/05 20:32:34;;;;;;;12.00;11.00;;;25.10;90.30;;;;;;10522470;28;20278;-83
2022/08/05 20:37:36;;;;;;;11.67;10.73;;;24.90;91.20;;;;;;10557531;28;20195;-85
2022/08/05 20:42:38;;;;;;;16.70;15.30;;;24.80;90.90;;;;;;10515713;28;20196;-83
2022/08/05 20:47:41;;;;;;;10.50;9.60;;;24.80;90.70;;;;;;10536647;28;20310;-83
2022/08/05 20:52:44;;;;;;;12.63;11.53;;;24.70;90.60;;;;;;10518942;28;20227;-84
2022/08/05 20:57:47;;;;;;;12.13;11.10;;;24.60;91.30;;;;;;10565360;28;20283;-83
2022/08/05 21:02:54;;;;;;;10.20;9.30;;;24.60;91.50;;;;;;10549188;28;20196;-84
2022/08/05 21:07:56;;;;;;;12.17;10.87;;;24.50;90.60;;;;;;10531553;28;20231;-83
2022/08/05 21:12:58;;;;;;;10.37;9.67;;;24.50;91.00;;;;;;10524073;28;20219;-84
2022/08/05 21:18:02;;;;;;;9.37;8.67;;;24.40;91.20;;;;;;10529140;28;20216;-84
2022/08/05 21:23:06;;;;;;;10.13;9.43;;;24.40;90.50;;;;;;10493759;28;20390;-83
2022/08/05 21:28:08;;;;;;;10.03;9.23;;;24.40;90.60;;;;;;10502100;28;20240;-84
2022/08/05 21:33:11;;;;;;;11.27;10.47;;;24.40;90.60;;;;;;10521444;28;20223;-83
2022/08/05 21:38:13;;;;;;;9.87;9.17;;;24.30;90.60;;;;;;10531195;28;20242;-82
2022/08/05 21:43:17;;;;;;;9.50;8.83;;;24.30;90.30;;;;;;10516719;28;20242;-83
2022/08/05 21:48:21;;;;;;;9.27;8.40;;;24.30;90.20;;;;;;10546710;28;20249;-84
2022/08/05 21:53:24;;;;;;;8.70;8.10;;;24.30;90.20;;;;;;10539113;28;20216;-83
2022/08/05 21:58:26;;;;;;;8.60;8.00;;;24.30;89.90;;;;;;10538064;28;20259;-83
2022/08/05 22:03:29;;;;;;;8.83;8.23;;;24.30;89.60;;;;;;10562688;28;20188;-80
2022/08/05 22:08:31;;;;;;;9.00;8.30;;;24.30;89.20;;;;;;10543299;28;20348;-82
2022/08/05 22:13:34;;;;;;;8.40;7.70;;;24.20;89.90;;;;;;10539467;28;20223;-82
2022/08/05 22:18:37;;;;;;;7.90;7.10;;;24.20;90.40;;;;;;10542883;28;20414;-82
2022/08/05 22:28:59;;;;;;;5.70;5.40;;;24.20;87.90;;;;;;10523085;28;20219;-83
2022/08/05 22:34:03;;;;;;;5.47;5.07;;;24.20;85.80;;;;;;10516265;28;20265;-84
2022/08/05 22:39:05;;;;;;;5.60;5.20;;;24.10;82.20;;;;;;10529713;28;20247;-83
2022/08/05 22:44:08;;;;;;;5.37;4.87;;;24.20;79.60;;;;;;10518872;28;20230;-83
2022/08/05 22:49:13;;;;;;;4.80;4.50;;;24.10;78.20;;;;;;10501304;28;20216;-84
2022/08/05 22:54:15;;;;;;;5.67;5.27;;;24.10;78.40;;;;;;10504193;28;20536;-84
2022/08/05 22:59:17;;;;;;;4.87;4.47;;;24.10;76.70;;;;;;10533869;28;20315;-84
2022/08/05 23:04:20;;;;;;;4.50;4.30;;;24.00;76.40;;;;;;10508721;28;20206;-84
2022/08/05 23:09:23;;;;;;;3.73;3.50;;;24.10;74.80;;;;;;10497961;28;20223;-83
2022/08/05 23:14:25;;;;;;;4.27;3.97;;;24.10;76.40;;;;;;10516916;28;20219;-83
2022/08/05 23:19:28;;;;;;;4.40;4.00;;;24.00;75.10;;;;;;10504745;28;20220;-83
2022/08/05 23:24:30;;;;;;;3.93;3.73;;;24.00;75.70;;;;;;10496724;28;20220;-83
2022/08/05 23:29:32;;;;;;;3.93;3.73;;;24.00;73.80;;;;;;10501835;28;20243;-83
2022/08/05 23:34:36;;;;;;;4.80;3.73;;;24.00;75.30;;;;;;10511113;28;20635;-83
2022/08/05 23:39:38;;;;;;;3.70;3.40;;;24.00;75.40;;;;;;10493702;28;20265;-84
2022/08/05 23:44:40;;;;;;;3.90;3.60;;;23.90;74.00;;;;;;10521391;28;20242;-83
2022/08/05 23:49:44;;;;;;;3.90;3.63;;;23.90;74.60;;;;;;10532341;28;20264;-84
2022/08/05 23:54:48;;;;;;;3.70;3.40;;;23.90;74.10;;;;;;10536262;28;20265;-84
2022/08/05 23:59:50;;;;;;;3.43;3.33;;;23.90;74.70;;;;;;10524415;28;20230;-83
